createdAt,value
2023-02-15T00:02:09.613Z,9.30
2023-02-15T00:05:02.760Z,8.95
2023-02-15T00:07:29.229Z,8.55
2023-02-15T00:09:55.723Z,8.15
2023-02-15T00:12:22.196Z,7.43
2023-02-15T00:14:49.093Z,7.40
2023-02-15T00:17:20.690Z,7.20
2023-02-15T00:19:53.391Z,6.85
2023-02-15T00:22:23.385Z,6.35
2023-02-15T00:24:51.002Z,5.97
2023-02-15T00:27:17.524Z,6.13
2023-02-15T00:29:47.011Z,5.88
2023-02-15T00:32:13.520Z,6.18
2023-02-15T00:34:42.732Z,5.80
2023-02-15T00:37:09.342Z,5.80
2023-02-15T00:39:35.799Z,5.47
2023-02-15T00:42:02.497Z,5.93
2023-02-15T00:44:30.336Z,5.40
2023-02-15T00:46:56.920Z,5.50
2023-02-15T00:49:23.366Z,5.30
2023-02-15T00:51:49.859Z,6.25
2023-02-15T00:54:16.345Z,6.05
2023-02-15T00:56:49.276Z,6.35
2023-02-15T00:59:15.753Z,5.00
2023-02-15T01:01:42.476Z,4.88
2023-02-15T01:04:09.078Z,4.57
2023-02-15T01:06:35.631Z,4.88
2023-02-15T01:09:02.202Z,4.75
2023-02-15T01:11:28.716Z,5.15
2023-02-15T01:13:58.218Z,4.30
2023-02-15T01:16:28.009Z,4.60
2023-02-15T01:18:55.707Z,5.05
2023-02-15T01:21:25.070Z,4.93
2023-02-15T01:23:53.264Z,4.53
2023-02-15T01:26:21.350Z,4.55
2023-02-15T01:28:48.094Z,4.45
2023-02-15T01:31:16.918Z,4.55
2023-02-15T01:33:43.949Z,4.50
2023-02-15T01:36:11.240Z,4.38
2023-02-15T01:38:41.362Z,4.72
2023-02-15T01:41:27.212Z,4.38
2023-02-15T01:44:01.996Z,4.28
2023-02-15T01:46:31.708Z,4.40
2023-02-15T01:49:04.383Z,4.55
2023-02-15T01:51:33.553Z,4.80
2023-02-15T01:54:10.799Z,4.00
2023-02-15T01:56:40.080Z,4.03
2023-02-15T01:59:16.729Z,4.22
2023-02-15T02:01:43.391Z,4.43
2023-02-15T02:04:16.276Z,3.78
2023-02-15T02:06:42.827Z,4.10
2023-02-15T02:09:09.545Z,4.57
2023-02-15T02:11:36.078Z,4.20
2023-02-15T02:14:02.651Z,4.18
2023-02-15T02:16:59.627Z,4.32
2023-02-15T02:19:53.822Z,4.45
2023-02-15T02:22:20.283Z,4.30
2023-02-15T02:25:08.582Z,4.07
2023-02-15T02:28:08.902Z,3.60
2023-02-15T02:30:57.240Z,3.92
2023-02-15T02:33:33.103Z,4.07
2023-02-15T02:36:46.895Z,3.85
2023-02-15T02:39:38.860Z,4.13
2023-02-15T02:42:05.272Z,4.28
2023-02-15T02:44:55.187Z,3.80
2023-02-15T02:47:57.171Z,4.13
2023-02-15T02:50:28.095Z,3.42
2023-02-15T02:52:56.681Z,3.10
2023-02-15T02:55:30.350Z,2.10
2023-02-15T02:57:59.416Z,1.90
2023-02-15T03:00:28.678Z,1.75
2023-02-15T03:03:05.847Z,1.52
2023-02-15T03:05:35.717Z,1.60
2023-02-15T03:08:07.083Z,1.60
2023-02-15T03:10:36.015Z,1.60
2023-02-15T03:13:03.413Z,1.52
2023-02-15T03:15:56.374Z,1.50
2023-02-15T03:18:28.029Z,1.80
2023-02-15T03:20:57.077Z,1.65
2023-02-15T03:23:26.612Z,2.35
2023-02-15T03:25:58.487Z,2.20
2023-02-15T03:31:07.393Z,2.10
2023-02-15T03:33:37.436Z,2.20
2023-02-15T03:36:29.502Z,2.00
2023-02-15T03:39:10.167Z,1.98
2023-02-15T03:41:45.904Z,2.42
2023-02-15T03:44:22.427Z,2.40
2023-02-15T03:47:18.958Z,1.92
2023-02-15T03:49:56.449Z,2.25
2023-02-15T03:52:26.123Z,2.10
2023-02-15T03:54:53.147Z,2.10
2023-02-15T03:57:46.205Z,2.20
2023-02-15T04:00:38.685Z,2.00
2023-02-15T04:03:23.230Z,2.08
2023-02-15T04:05:50.078Z,2.20
2023-02-15T04:08:18.474Z,2.17
2023-02-15T04:10:54.234Z,2.30
2023-02-15T04:13:22.276Z,2.00
2023-02-15T04:16:04.230Z,2.00
2023-02-15T04:19:03.096Z,2.20
2023-02-15T04:21:49.945Z,2.10
2023-02-15T04:24:38.259Z,2.38
2023-02-15T04:27:05.821Z,2.30
2023-02-15T04:29:32.820Z,2.17
2023-02-15T04:32:01.183Z,2.75
2023-02-15T04:34:27.845Z,2.30
2023-02-15T04:36:54.361Z,1.90
2023-02-15T04:39:20.835Z,2.60
2023-02-15T04:41:48.669Z,2.45
2023-02-15T04:44:15.326Z,2.20
2023-02-15T04:46:41.764Z,2.33
2023-02-15T04:49:09.413Z,2.15
2023-02-15T04:51:37.570Z,2.25
2023-02-15T04:54:04.324Z,1.83
2023-02-15T04:56:38.635Z,2.15
2023-02-15T04:59:05.255Z,2.30
2023-02-15T05:01:32.101Z,1.88
2023-02-15T05:03:58.813Z,2.03
2023-02-15T05:06:25.344Z,2.00
2023-02-15T05:08:51.870Z,1.90
2023-02-15T05:11:18.483Z,2.08
2023-02-15T05:13:44.987Z,1.90
2023-02-15T05:16:11.505Z,1.80
2023-02-15T05:18:37.999Z,1.70
2023-02-15T05:21:04.785Z,1.98
2023-02-15T05:23:31.346Z,1.70
2023-02-15T05:26:16.314Z,1.70
2023-02-15T05:28:42.878Z,1.95
2023-02-15T05:31:18.389Z,1.80
2023-02-15T05:33:45.901Z,1.65
2023-02-15T05:36:13.063Z,1.80
2023-02-15T05:38:40.195Z,1.70
2023-02-15T05:41:07.948Z,1.50
2023-02-15T05:43:34.879Z,1.73
2023-02-15T05:46:02.299Z,1.60
2023-02-15T05:48:29.376Z,1.90
2023-02-15T05:51:07.862Z,1.55
2023-02-15T05:53:36.808Z,1.90
2023-02-15T05:56:04.903Z,1.75
2023-02-15T05:58:37.406Z,1.70
2023-02-15T06:01:14.398Z,1.70
2023-02-15T06:03:41.442Z,2.00
2023-02-15T06:06:08.760Z,2.05
2023-02-15T06:08:36.785Z,2.40
2023-02-15T06:11:04.136Z,2.30
2023-02-15T06:13:34.434Z,2.38
2023-02-15T06:16:02.367Z,3.03
2023-02-15T06:18:29.124Z,2.40
2023-02-15T06:20:55.558Z,2.92
2023-02-15T06:23:22.061Z,2.70
2023-02-15T06:25:48.526Z,2.40
2023-02-15T06:28:15.273Z,2.90
2023-02-15T06:30:42.000Z,3.03
2023-02-15T06:33:08.532Z,2.95
2023-02-15T06:35:35.070Z,3.13
2023-02-15T06:38:01.568Z,4.13
2023-02-15T06:40:28.003Z,4.13
2023-02-15T06:42:54.472Z,3.55
2023-02-15T06:45:20.984Z,4.15
2023-02-15T06:47:47.461Z,4.78
2023-02-15T06:50:13.980Z,5.03
2023-02-15T06:52:40.466Z,5.63
2023-02-15T06:55:07.933Z,5.00
2023-02-15T06:57:34.524Z,5.82
2023-02-15T07:00:01.087Z,6.20
2023-02-15T07:02:27.754Z,6.53
2023-02-15T07:04:54.355Z,6.43
2023-02-15T07:07:21.020Z,6.88
2023-02-15T07:09:47.533Z,6.63
2023-02-15T07:12:32.532Z,7.00
2023-02-15T07:14:59.300Z,6.53
2023-02-15T07:17:36.853Z,7.40
2023-02-15T07:20:12.229Z,7.70
2023-02-15T07:22:39.147Z,9.77
2023-02-15T07:25:07.595Z,10.43
2023-02-15T07:27:34.184Z,9.73
2023-02-15T07:30:01.321Z,9.48
2023-02-15T07:32:32.605Z,11.20
2023-02-15T07:35:00.123Z,10.82
2023-02-15T07:37:29.748Z,12.25
2023-02-15T07:39:56.215Z,11.65
2023-02-15T07:42:23.094Z,12.15
2023-02-15T07:44:50.079Z,11.02
2023-02-15T07:47:16.690Z,12.38
2023-02-15T07:49:43.182Z,12.10
2023-02-15T07:52:09.768Z,12.52
2023-02-15T07:54:36.281Z,10.23
2023-02-15T07:57:03.086Z,10.20
2023-02-15T07:59:29.629Z,8.77
2023-02-15T08:01:57.495Z,7.88
2023-02-15T08:04:24.618Z,6.38
2023-02-15T08:06:54.145Z,7.60
2023-02-15T08:09:20.852Z,7.32
2023-02-15T08:11:48.233Z,6.43
2023-02-15T08:14:24.651Z,6.28
2023-02-15T08:17:03.636Z,6.88
2023-02-15T08:19:32.789Z,7.18
2023-02-15T08:22:02.244Z,6.88
2023-02-15T08:24:31.292Z,8.68
2023-02-15T08:26:57.950Z,6.78
2023-02-15T08:29:27.477Z,6.63
2023-02-15T08:31:56.075Z,5.93
2023-02-15T08:34:25.633Z,6.20
2023-02-15T08:36:52.248Z,5.53
2023-02-15T08:39:18.709Z,6.50
2023-02-15T08:41:46.744Z,6.47
2023-02-15T08:44:16.104Z,6.30
2023-02-15T08:46:45.100Z,5.22
2023-02-15T08:49:18.235Z,5.00
2023-02-15T08:51:48.105Z,5.50
2023-02-15T08:54:17.381Z,4.32
2023-02-15T08:56:45.132Z,4.40
2023-02-15T08:59:20.060Z,3.13
2023-02-15T09:01:47.717Z,5.10
2023-02-15T09:04:16.678Z,6.25
2023-02-15T09:06:46.404Z,5.88
2023-02-15T09:09:15.062Z,4.80
2023-02-15T09:11:43.756Z,4.45
2023-02-15T09:14:16.299Z,5.47
2023-02-15T09:16:49.757Z,6.13
2023-02-15T09:19:20.945Z,6.15
2023-02-15T09:21:47.728Z,6.63
2023-02-15T09:24:16.194Z,8.05
2023-02-15T09:26:45.503Z,8.13
2023-02-15T09:29:13.722Z,8.00
2023-02-15T09:31:45.398Z,8.68
2023-02-15T09:34:14.777Z,8.18
2023-02-15T09:36:44.369Z,8.10
2023-02-15T09:39:22.216Z,8.50
2023-02-15T09:42:19.401Z,8.50
2023-02-15T09:44:48.874Z,8.70
2023-02-15T09:47:18.842Z,7.93
2023-02-15T09:50:03.436Z,9.27
2023-02-15T09:52:44.193Z,9.20
2023-02-15T09:55:23.357Z,8.63
2023-02-15T09:58:01.091Z,8.77
2023-02-15T10:00:59.864Z,7.22
2023-02-15T10:03:32.679Z,5.90
2023-02-15T10:06:18.040Z,5.60
2023-02-15T10:09:04.098Z,4.28
2023-02-15T10:11:50.691Z,4.63
2023-02-15T10:14:20.155Z,8.75
2023-02-15T10:17:04.155Z,8.73
2023-02-15T10:20:11.590Z,9.35
2023-02-15T10:22:54.889Z,9.27
2023-02-15T10:25:51.037Z,8.82
2023-02-15T10:28:20.510Z,7.43
2023-02-15T10:30:52.483Z,8.30
2023-02-15T10:36:04.035Z,7.68
2023-02-15T10:38:39.758Z,7.50
2023-02-15T10:41:25.280Z,7.68
2023-02-15T10:44:31.750Z,7.50
2023-02-15T10:47:19.444Z,8.07
2023-02-15T10:50:04.247Z,6.75
2023-02-15T10:52:58.086Z,5.85
2023-02-15T10:55:49.468Z,4.38
2023-02-15T10:58:16.483Z,4.43
2023-02-15T11:00:49.954Z,4.50
2023-02-15T11:03:26.218Z,4.60
2023-02-15T11:06:17.141Z,4.50
2023-02-15T11:09:00.653Z,4.93
2023-02-15T11:11:34.518Z,5.05
2023-02-15T11:14:06.353Z,4.82
2023-02-15T11:16:38.083Z,4.72
2023-02-15T11:19:30.812Z,4.10
2023-02-15T11:22:03.865Z,5.05
2023-02-15T11:24:35.652Z,4.93
2023-02-15T11:27:16.328Z,5.90
2023-02-15T11:29:53.837Z,5.88
2023-02-15T11:32:34.133Z,7.07
2023-02-15T11:35:12.949Z,6.00
2023-02-15T11:37:51.284Z,5.75
2023-02-15T11:40:20.751Z,8.60
2023-02-15T11:42:50.940Z,8.90
2023-02-15T11:45:24.008Z,7.25
2023-02-15T11:47:50.643Z,8.40
2023-02-15T11:50:23.271Z,8.15
2023-02-15T11:52:52.480Z,8.38
2023-02-15T11:55:25.003Z,8.32
2023-02-15T11:58:10.704Z,7.80
2023-02-15T12:00:46.938Z,7.55
2023-02-15T12:03:49.945Z,7.35
2023-02-15T12:06:33.527Z,8.35
2023-02-15T12:09:37.206Z,8.27
2023-02-15T12:12:24.226Z,8.27
2023-02-15T12:14:55.976Z,7.65
2023-02-15T12:17:25.644Z,8.10
2023-02-15T12:19:56.148Z,6.82
2023-02-15T12:22:26.759Z,9.13
2023-02-15T12:24:56.708Z,9.73
2023-02-15T12:27:27.738Z,9.38
2023-02-15T12:29:59.157Z,8.52
2023-02-15T12:32:32.376Z,9.02
2023-02-15T12:35:14.216Z,9.18
2023-02-15T12:37:54.780Z,9.10
2023-02-15T12:40:31.716Z,10.30
2023-02-15T12:42:59.248Z,9.13
2023-02-15T12:45:34.697Z,8.50
2023-02-15T12:48:12.976Z,8.18
2023-02-15T12:50:41.286Z,8.70
2023-02-15T12:53:23.762Z,8.07
2023-02-15T12:55:59.219Z,8.35
2023-02-15T12:58:31.443Z,8.60
2023-02-15T13:01:09.904Z,7.72
2023-02-15T13:03:56.399Z,7.88
2023-02-15T13:06:26.837Z,6.90
2023-02-15T13:08:55.861Z,6.53
2023-02-15T13:11:29.737Z,9.57
2023-02-15T13:14:01.367Z,6.03
2023-02-15T13:16:49.191Z,11.45
2023-02-15T13:19:19.149Z,10.85
2023-02-15T13:21:52.501Z,10.60
2023-02-15T13:24:21.034Z,9.98
2023-02-15T13:26:48.693Z,10.32
2023-02-15T13:29:28.941Z,10.20
2023-02-15T13:31:58.536Z,9.73
2023-02-15T13:34:31.250Z,9.93
2023-02-15T13:37:09.773Z,9.00
2023-02-15T13:39:45.404Z,8.73
2023-02-15T13:42:32.587Z,8.20
2023-02-15T13:45:14.828Z,8.57
2023-02-15T13:47:47.582Z,8.35
2023-02-15T13:50:39.729Z,8.82
2023-02-15T13:53:36.892Z,7.13
2023-02-15T13:56:08.944Z,7.30
2023-02-15T14:01:19.739Z,8.88
2023-02-15T14:04:23.455Z,8.25
2023-02-15T14:07:08.291Z,6.82
2023-02-15T14:09:48.678Z,6.57
2023-02-15T14:12:44.890Z,6.22
2023-02-15T14:15:30.677Z,8.50
2023-02-15T14:18:09.783Z,7.75
2023-02-15T14:20:42.285Z,6.97
2023-02-15T14:23:31.045Z,7.25
2023-02-15T14:26:21.201Z,6.60
2023-02-15T14:29:03.739Z,7.70
2023-02-15T14:31:44.326Z,8.85
2023-02-15T14:34:45.336Z,8.95
2023-02-15T14:37:14.776Z,10.05
2023-02-15T14:40:16.403Z,10.52
2023-02-15T14:43:02.541Z,11.03
2023-02-15T14:45:43.825Z,10.13
2023-02-15T14:48:22.082Z,9.77
2023-02-15T14:50:49.439Z,10.30
2023-02-15T14:53:28.528Z,9.80
2023-02-15T14:56:14.649Z,9.48
2023-02-15T14:58:57.623Z,8.98
2023-02-15T15:01:36.248Z,8.27
2023-02-15T15:04:28.700Z,8.60
2023-02-15T15:07:36.246Z,8.27
2023-02-15T15:10:17.979Z,8.70
2023-02-15T15:12:45.759Z,7.80
2023-02-15T15:15:34.663Z,6.72
2023-02-15T15:18:31.038Z,6.80
2023-02-15T15:20:57.741Z,5.80
2023-02-15T15:23:24.143Z,7.00
2023-02-15T15:25:57.194Z,6.20
2023-02-15T15:28:35.832Z,6.07
2023-02-15T15:31:19.870Z,7.60
2023-02-15T15:34:24.642Z,7.78
2023-02-15T15:36:54.654Z,8.52
2023-02-15T15:40:01.296Z,8.18
2023-02-15T15:42:32.331Z,7.68
2023-02-15T15:45:20.428Z,7.90
2023-02-15T15:47:58.758Z,8.25
2023-02-15T15:50:32.226Z,7.90
2023-02-15T15:53:01.756Z,8.75
2023-02-15T15:55:31.668Z,9.77
2023-02-15T15:58:03.584Z,8.85
2023-02-15T16:00:52.610Z,9.13
2023-02-15T16:03:27.655Z,9.68
2023-02-15T16:05:56.349Z,9.20
2023-02-15T16:08:32.130Z,9.05
2023-02-15T16:10:59.300Z,9.52
2023-02-15T16:13:27.436Z,10.25
2023-02-15T16:15:56.840Z,10.15
2023-02-15T16:18:28.404Z,9.73
2023-02-15T16:21:02.554Z,10.32
2023-02-15T16:23:46.853Z,11.10
2023-02-15T16:26:49.381Z,11.35
2023-02-15T16:29:29.226Z,11.73
2023-02-15T16:32:04.004Z,10.38
2023-02-15T16:34:33.480Z,11.20
2023-02-15T16:37:16.724Z,11.35
2023-02-15T16:39:44.765Z,10.77
2023-02-15T16:42:13.176Z,11.02
2023-02-15T16:44:41.451Z,11.10
2023-02-15T16:47:22.585Z,11.18
2023-02-15T16:49:52.408Z,11.38
2023-02-15T16:52:25.744Z,12.48
2023-02-15T16:55:01.417Z,14.57
2023-02-15T16:57:35.453Z,14.20
2023-02-15T17:00:08.818Z,14.48
2023-02-15T17:02:56.465Z,13.90
2023-02-15T17:05:23.718Z,13.63
2023-02-15T17:08:16.383Z,13.23
2023-02-15T17:11:00.355Z,12.60
2023-02-15T17:13:28.575Z,12.82
2023-02-15T17:16:01.411Z,18.02
2023-02-15T17:18:33.053Z,14.27
2023-02-15T17:21:11.113Z,16.55
2023-02-15T17:23:49.433Z,16.95
2023-02-15T17:26:21.245Z,19.83
2023-02-15T17:28:59.621Z,18.73
2023-02-15T17:31:32.921Z,18.23
2023-02-15T17:34:01.406Z,18.77
2023-02-15T17:36:30.633Z,17.95
2023-02-15T17:38:59.831Z,17.27
2023-02-15T17:41:29.294Z,18.23
2023-02-15T17:43:56.009Z,17.20
2023-02-15T17:46:23.535Z,21.25
2023-02-15T17:48:52.262Z,21.10
2023-02-15T17:51:20.466Z,21.80
2023-02-15T17:54:06.114Z,21.00
2023-02-15T17:56:33.622Z,23.40
2023-02-15T17:59:00.177Z,28.45
2023-02-15T18:01:45.261Z,27.85
2023-02-15T18:04:32.523Z,31.10
2023-02-15T18:07:18.152Z,31.67
2023-02-15T18:10:03.319Z,29.13
2023-02-15T18:12:31.562Z,33.88
2023-02-15T18:14:58.771Z,40.90
2023-02-15T18:17:32.623Z,37.85
2023-02-15T18:20:01.489Z,30.92
2023-02-15T18:22:29.711Z,26.75
2023-02-15T18:24:56.189Z,25.58
2023-02-15T18:27:22.645Z,22.35
2023-02-15T18:29:49.299Z,20.63
2023-02-15T18:32:35.813Z,19.13
2023-02-15T18:35:03.538Z,19.20
2023-02-15T18:37:33.298Z,20.83
2023-02-15T18:40:03.846Z,18.58
2023-02-15T18:42:34.275Z,18.08
2023-02-15T18:45:24.820Z,16.45
2023-02-15T18:47:51.789Z,16.35
2023-02-15T18:50:20.118Z,14.73
2023-02-15T18:52:48.734Z,18.60
2023-02-15T18:55:21.065Z,15.95
2023-02-15T18:57:49.375Z,15.70
2023-02-15T19:00:22.049Z,14.98
2023-02-15T19:02:48.924Z,13.52
2023-02-15T19:05:17.820Z,13.82
2023-02-15T19:07:48.311Z,12.57
2023-02-15T19:10:26.450Z,13.00
2023-02-15T19:12:53.955Z,14.60
2023-02-15T19:15:26.856Z,13.10
2023-02-15T19:17:54.652Z,13.02
2023-02-15T19:20:45.592Z,12.10
2023-02-15T19:23:19.343Z,12.63
2023-02-15T19:25:47.192Z,12.82
2023-02-15T19:28:19.499Z,13.50
2023-02-15T19:30:46.150Z,13.85
2023-02-15T19:33:20.620Z,13.20
2023-02-15T19:35:52.463Z,13.60
2023-02-15T19:38:22.139Z,14.07
2023-02-15T19:40:48.681Z,15.48
2023-02-15T19:43:17.973Z,18.25
2023-02-15T19:45:44.925Z,18.50
2023-02-15T19:48:14.958Z,16.77
2023-02-15T19:50:43.632Z,14.93
2023-02-15T19:53:30.900Z,17.45
2023-02-15T19:55:57.472Z,17.42
2023-02-15T19:58:24.262Z,17.73
2023-02-15T20:00:51.602Z,14.88
2023-02-15T20:03:18.162Z,15.63
2023-02-15T20:05:45.482Z,15.45
2023-02-15T20:08:17.231Z,15.52
2023-02-15T20:10:45.372Z,14.98
2023-02-15T20:13:16.925Z,16.50
2023-02-15T20:15:44.285Z,18.00
2023-02-15T20:18:11.376Z,17.30
2023-02-15T20:20:44.374Z,18.08
2023-02-15T20:23:18.503Z,18.02
2023-02-15T20:25:45.423Z,16.67
2023-02-15T20:28:27.106Z,15.68
2023-02-15T20:30:54.138Z,22.73
2023-02-15T20:33:22.782Z,18.45
2023-02-15T20:35:50.759Z,16.80
2023-02-15T20:38:27.046Z,14.93
2023-02-15T20:41:14.075Z,16.20
2023-02-15T20:43:41.000Z,14.85
2023-02-15T20:46:08.000Z,13.65
2023-02-15T20:48:35.258Z,13.18
2023-02-15T20:51:02.582Z,13.13
2023-02-15T20:53:29.556Z,12.90
2023-02-15T20:55:56.571Z,13.27
2023-02-15T20:58:28.533Z,11.90
2023-02-15T21:03:26.487Z,10.85
2023-02-15T21:05:53.152Z,10.38
2023-02-15T21:08:21.815Z,10.45
2023-02-15T21:10:50.977Z,11.43
2023-02-15T21:13:22.763Z,11.70
2023-02-15T21:15:51.700Z,11.43
2023-02-15T21:18:29.972Z,11.68
2023-02-15T21:20:59.127Z,12.02
2023-02-15T21:23:43.638Z,11.43
2023-02-15T21:26:19.459Z,12.15
2023-02-15T21:28:47.142Z,12.35
2023-02-15T21:31:20.036Z,12.65
2023-02-15T21:33:46.605Z,12.35
2023-02-15T21:36:19.881Z,12.02
2023-02-15T21:38:51.780Z,12.43
2023-02-15T21:44:41.935Z,11.90
2023-02-15T21:47:41.504Z,12.55
2023-02-15T21:50:30.627Z,12.52
2023-02-15T21:52:57.850Z,13.30
2023-02-15T21:55:24.533Z,13.32
2023-02-15T21:57:51.041Z,12.88
2023-02-15T22:00:19.648Z,13.52
2023-02-15T22:02:48.087Z,13.52
2023-02-15T22:05:18.597Z,14.82
2023-02-15T22:07:45.901Z,13.40
2023-02-15T22:10:13.398Z,13.95
2023-02-15T22:12:43.499Z,13.85
2023-02-15T22:15:19.545Z,13.38
2023-02-15T22:17:46.118Z,13.55
2023-02-15T22:20:19.240Z,13.77
2023-02-15T22:22:53.518Z,15.18
2023-02-15T22:25:24.192Z,14.20
2023-02-15T22:27:53.170Z,14.48
2023-02-15T22:30:32.685Z,15.05
2023-02-15T22:33:00.394Z,14.77
2023-02-15T22:35:32.267Z,14.80
2023-02-15T22:37:59.076Z,14.57
2023-02-15T22:40:53.530Z,15.00
2023-02-15T22:43:51.583Z,15.18
2023-02-15T22:46:21.222Z,15.02
2023-02-15T22:48:48.874Z,16.15
2023-02-15T22:51:21.528Z,15.48
2023-02-15T22:53:49.854Z,15.10
2023-02-15T22:56:26.736Z,15.27
2023-02-15T22:59:03.799Z,15.05
2023-02-15T23:01:45.563Z,15.32
2023-02-15T23:04:24.306Z,15.63
2023-02-15T23:06:53.275Z,15.00
2023-02-15T23:09:20.245Z,15.05
2023-02-15T23:11:55.175Z,15.57
2023-02-15T23:14:38.364Z,16.13
2023-02-15T23:17:04.871Z,15.32
2023-02-15T23:19:35.352Z,16.55
2023-02-15T23:22:05.201Z,16.92
2023-02-15T23:24:34.484Z,16.63
2023-02-15T23:27:19.437Z,16.63
2023-02-15T23:29:49.371Z,15.88
2023-02-15T23:32:18.922Z,16.05
2023-02-15T23:34:46.612Z,15.25
2023-02-15T23:37:17.144Z,16.38
2023-02-15T23:40:02.183Z,17.33
2023-02-15T23:42:31.980Z,16.33
2023-02-15T23:45:01.462Z,17.13
2023-02-15T23:47:51.188Z,16.33
2023-02-15T23:50:29.499Z,17.85
2023-02-15T23:52:57.284Z,16.52
2023-02-15T23:55:31.429Z,17.10
2023-02-15T23:57:57.905Z,17.70
